Mudd Tug 11 — WDG8624 — position and weather

sailwx.info

Track history (hours):
 
Tides and Currents Weather Stations Pressure Air Temp Water Temp Dewpoint Dewpoint Depression Visibility Wind Speed Wind Dir Waves Ship Positions

Mudd Tug 11

Owner: Brent D Simoneaux, Lake Charles, LA. More information available from US FCC via Universal Licensing System and Coast Guard Vessel Documentation Center.

Last reported at 2018-Jun-03 03:03 UTC. Time now 2018-Jun-23 06:29 UTC.
Position N 27°51' W 097°04'.
Warning: this ship's position is 20 days out of date.

Length 6 m.

Type: Tug. MMSI: 367579470.

Date/timePositionNaut miles runAvg speedWind from/ knotsBaromVisibWave heightAir tempDewpointWater temp
2018-Jun-03 03:03N 27°51' W 097°04'0 0.0
2018-Jun-03 02:55N 27°51' W 097°04'0 0.0
2018-Jun-03 02:24N 27°51' W 097°04'  
2018-May-28 17:27N 29°01' W 095°14'3 6.5
2018-May-28 17:00N 29°03' W 095°13'3 5.5
2018-May-28 16:30N 29°06' W 095°12'3 6.0
2018-May-28 16:00N 29°08' W 095°10'3 6.2
2018-May-28 15:30N 29°10' W 095°07'3 6.3
2018-May-28 15:00N 29°12' W 095°04'3 5.8
2018-May-28 14:30N 29°14' W 095°02'3 6.6
2018-May-28 14:00N 29°16' W 094°59'3 6.4
2018-May-28 13:30N 29°17' W 094°56'3 5.1
2018-May-28 13:00N 29°18' W 094°53'3 6.2
2018-May-28 12:30N 29°19' W 094°49'2 4.4
2018-May-28 11:59N 29°19' W 094°47'0 0.0
2018-May-28 11:30N 29°19' W 094°47'0 0.0
2018-May-28 11:00N 29°19' W 094°47'0 0.0
2018-May-28 10:19N 29°19' W 094°47'0 0.0
2018-May-28 10:00N 29°19' W 094°47'0 0.0
2018-May-28 09:29N 29°19' W 094°47'0 0.0
2018-May-28 08:50N 29°19' W 094°47'0 0.0
2018-May-28 08:25N 29°19' W 094°47'0 0.0
2018-May-28 07:58N 29°19' W 094°47'0 0.0
2018-May-28 02:46N 29°19' W 094°47'0 0.2
2018-May-28 02:30N 29°19' W 094°47'0 0.0
2018-May-28 02:00N 29°19' W 094°47'36 5.5
2018-May-27 19:32N 29°40' W 094°13'0 6.4
2018-May-27 19:30N 29°40' W 094°13'3 6.4
2018-May-27 19:00N 29°41' W 094°10'3 6.2
2018-May-27 18:30N 29°43' W 094°07'3 5.9
2018-May-27 18:00N 29°45' W 094°04'3 5.0
2018-May-27 17:30N 29°47' W 094°02'3 6.4
2018-May-27 17:00N 29°49' W 093°59'3 5.5
2018-May-27 16:30N 29°51' W 093°57'3 6.0
2018-May-27 15:59N 29°53' W 093°55'3 6.4
2018-May-27 15:30N 29°56' W 093°53'3 5.5
2018-May-27 15:00N 29°58' W 093°51'3 5.6
2018-May-27 14:30N 29°59' W 093°48'3 5.8
2018-May-27 14:00N 30°01' W 093°45'3 5.6
2018-May-27 13:30N 30°03' W 093°43'10 5.4
2018-May-27 11:40N 30°04' W 093°32'1 6.1
2018-May-27 11:30N 30°04' W 093°31'3 6.2
2018-May-27 11:00N 30°04' W 093°27'3 6.2
2018-May-27 10:30N 30°04' W 093°24'2 4.2
2018-May-27 10:00N 30°04' W 093°21'0 0.0
2018-May-27 09:31N 30°04' W 093°21'0 0.0
2018-May-27 09:01N 30°04' W 093°21'0 0.0
2018-May-27 08:31N 30°04' W 093°21'0 0.0
2018-May-27 08:01N 30°04' W 093°21'0 0.0
2018-May-27 07:30N 30°04' W 093°21'0 0.0
2018-May-27 07:00N 30°04' W 093°21'0 0.0
2018-May-27 06:29N 30°04' W 093°21'0 0.0
2018-May-27 06:00N 30°04' W 093°21'0 0.0
2018-May-27 05:31N 30°04' W 093°21'0 0.9
2018-May-27 05:01N 30°04' W 093°21'2 4.4
2018-May-27 04:30N 30°06' W 093°19'2 3.3
2018-May-27 04:01N 30°05' W 093°17'0 0.0
2018-May-27 03:31N 30°05' W 093°17'2 3.4
2018-May-27 03:01N 30°04' W 093°16'2 4.9
2018-May-27 02:31N 30°02' W 093°15'3 5.6
2018-May-27 02:00N 29°59' W 093°13'3 5.5
2018-May-27 01:30N 29°57' W 093°11'  
Track history (hours):
 
Tides and Currents Weather Stations Pressure Air Temp Water Temp Dewpoint Dewpoint Depression Visibility Wind Speed Wind Dir Waves Ship Positions

Mudd Tug 11

Owner: Brent D Simoneaux, Lake Charles, LA. More information available from US FCC via Universal Licensing System and Coast Guard Vessel Documentation Center.

Last reported at 2018-Jun-03 03:03 UTC. Time now 2018-Jun-23 06:29 UTC.
Position N 27°51' W 097°04'.
Warning: this ship's position is 20 days out of date.

Length 6 m.

Type: Tug. MMSI: 367579470.

Date/timePositionNaut miles runAvg speedWind from/ knotsBaromVisibWave heightAir tempDewpointWater temp
2018-Jun-03 03:03N 27°51' W 097°04'0 0.0
2018-Jun-03 02:55N 27°51' W 097°04'0 0.0
2018-Jun-03 02:24N 27°51' W 097°04'  
2018-May-28 17:27N 29°01' W 095°14'3 6.5
2018-May-28 17:00N 29°03' W 095°13'3 5.5
2018-May-28 16:30N 29°06' W 095°12'3 6.0
2018-May-28 16:00N 29°08' W 095°10'3 6.2
2018-May-28 15:30N 29°10' W 095°07'3 6.3
2018-May-28 15:00N 29°12' W 095°04'3 5.8
2018-May-28 14:30N 29°14' W 095°02'3 6.6
2018-May-28 14:00N 29°16' W 094°59'3 6.4
2018-May-28 13:30N 29°17' W 094°56'3 5.1
2018-May-28 13:00N 29°18' W 094°53'3 6.2
2018-May-28 12:30N 29°19' W 094°49'2 4.4
2018-May-28 11:59N 29°19' W 094°47'0 0.0
2018-May-28 11:30N 29°19' W 094°47'0 0.0
2018-May-28 11:00N 29°19' W 094°47'0 0.0
2018-May-28 10:19N 29°19' W 094°47'0 0.0
2018-May-28 10:00N 29°19' W 094°47'0 0.0
2018-May-28 09:29N 29°19' W 094°47'0 0.0
2018-May-28 08:50N 29°19' W 094°47'0 0.0
2018-May-28 08:25N 29°19' W 094°47'0 0.0
2018-May-28 07:58N 29°19' W 094°47'0 0.0
2018-May-28 02:46N 29°19' W 094°47'0 0.2
2018-May-28 02:30N 29°19' W 094°47'0 0.0
2018-May-28 02:00N 29°19' W 094°47'36 5.5
2018-May-27 19:32N 29°40' W 094°13'0 6.4
2018-May-27 19:30N 29°40' W 094°13'3 6.4
2018-May-27 19:00N 29°41' W 094°10'3 6.2
2018-May-27 18:30N 29°43' W 094°07'3 5.9
2018-May-27 18:00N 29°45' W 094°04'3 5.0
2018-May-27 17:30N 29°47' W 094°02'3 6.4
2018-May-27 17:00N 29°49' W 093°59'3 5.5
2018-May-27 16:30N 29°51' W 093°57'3 6.0
2018-May-27 15:59N 29°53' W 093°55'3 6.4
2018-May-27 15:30N 29°56' W 093°53'3 5.5
2018-May-27 15:00N 29°58' W 093°51'3 5.6
2018-May-27 14:30N 29°59' W 093°48'3 5.8
2018-May-27 14:00N 30°01' W 093°45'3 5.6
2018-May-27 13:30N 30°03' W 093°43'10 5.4
2018-May-27 11:40N 30°04' W 093°32'1 6.1
2018-May-27 11:30N 30°04' W 093°31'3 6.2
2018-May-27 11:00N 30°04' W 093°27'3 6.2
2018-May-27 10:30N 30°04' W 093°24'2 4.2
2018-May-27 10:00N 30°04' W 093°21'0 0.0
2018-May-27 09:31N 30°04' W 093°21'0 0.0
2018-May-27 09:01N 30°04' W 093°21'0 0.0
2018-May-27 08:31N 30°04' W 093°21'0 0.0
2018-May-27 08:01N 30°04' W 093°21'0 0.0
2018-May-27 07:30N 30°04' W 093°21'0 0.0
2018-May-27 07:00N 30°04' W 093°21'0 0.0
2018-May-27 06:29N 30°04' W 093°21'0 0.0
2018-May-27 06:00N 30°04' W 093°21'0 0.0
2018-May-27 05:31N 30°04' W 093°21'0 0.9
2018-May-27 05:01N 30°04' W 093°21'2 4.4
2018-May-27 04:30N 30°06' W 093°19'2 3.3
2018-May-27 04:01N 30°05' W 093°17'0 0.0
2018-May-27 03:31N 30°05' W 093°17'2 3.4
2018-May-27 03:01N 30°04' W 093°16'2 4.9
2018-May-27 02:31N 30°02' W 093°15'3 5.6
2018-May-27 02:00N 29°59' W 093°13'3 5.5
2018-May-27 01:30N 29°57' W 093°11'  

Dump ship's entire track history